Time;durP1;ratioP1;P1;durP2;ratioP2;P2;SDS_P1;SDS_P2;PMS_P1;PMS_P2;Temp;Humidity;BMP_temperature;BMP_pressure;BME280_temperature;BME280_humidity;BME280_pressure;Samples;Min_cycle;Max_cycle;Signal;HPM_P1;HPM_P2
2023/09/29 00:01:23;;;;;;;3.47;3.00;;;;;;;20.83;50.94;97682.78;5052246;28;20801;-71
2023/09/29 00:03:48;;;;;;;5.10;3.83;;;;;;;20.78;51.31;97682.59;5059021;28;20186;-70
2023/09/29 00:06:14;;;;;;;8.67;4.70;;;;;;;20.78;51.33;97685.25;5052939;28;20218;-71
2023/09/29 00:08:39;;;;;;;5.53;4.00;;;;;;;20.81;51.42;97684.81;5048561;28;20199;-68
2023/09/29 00:11:05;;;;;;;5.47;3.97;;;;;;;20.80;51.42;97672.53;5047768;28;20791;-71
2023/09/29 00:13:30;;;;;;;6.90;4.20;;;;;;;20.75;51.58;97667.03;5058038;28;20214;-67
2023/09/29 00:15:56;;;;;;;5.20;3.67;;;;;;;20.70;51.49;97672.94;5054202;28;20190;-72
2023/09/29 00:18:23;;;;;;;13.60;4.10;;;;;;;20.77;51.36;97675.63;5050092;28;20183;-69
2023/09/29 00:20:48;;;;;;;4.93;3.93;;;;;;;20.70;51.49;97675.59;5056637;28;20199;-69
2023/09/29 00:23:15;;;;;;;8.07;4.50;;;;;;;20.65;51.44;97665.56;5040510;28;20457;-69
2023/09/29 00:25:40;;;;;;;10.73;4.50;;;;;;;20.64;51.46;97669.25;5048733;28;20183;-71
2023/09/29 00:28:06;;;;;;;6.10;3.80;;;;;;;20.66;51.66;97675.19;5049209;28;20529;-71
2023/09/29 00:30:31;;;;;;;4.63;3.77;;;;;;;20.67;51.50;97682.13;5062289;28;20280;-71
2023/09/29 00:32:56;;;;;;;7.33;4.37;;;;;;;20.63;51.85;97677.44;5044634;28;20222;-70
2023/09/29 00:35:28;;;;;;;7.23;4.30;;;;;;;20.55;52.22;97686.44;5051841;28;20870;-72
2023/09/29 00:37:55;;;;;;;6.80;3.37;;;;;;;20.62;51.76;97684.59;5060223;28;20273;-71
2023/09/29 00:40:21;;;;;;;5.43;4.17;;;;;;;20.58;51.84;97688.69;5048936;28;20499;-70
2023/09/29 00:42:48;;;;;;;6.10;4.00;;;;;;;20.55;52.35;97686.44;5049589;28;21028;-70
2023/09/29 00:45:20;;;;;;;5.77;4.37;;;;;;;20.53;52.43;97683.19;5051813;28;20528;-70
2023/09/29 00:47:49;;;;;;;6.97;4.67;;;;;;;20.53;51.86;97683.19;5053219;28;20918;-70
2023/09/29 00:50:14;;;;;;;4.13;3.40;;;;;;;20.56;52.13;97674.75;5052721;28;20497;-70
2023/09/29 00:52:41;;;;;;;5.03;3.97;;;;;;;20.54;51.82;97674.97;5051344;28;20465;-70
2023/09/29 00:55:15;;;;;;;5.37;3.67;;;;;;;20.56;51.90;97678.25;5057728;28;20187;-70
2023/09/29 00:57:42;;;;;;;5.73;4.13;;;;;;;20.59;51.87;97666.38;5054609;28;20425;-71
2023/09/29 01:02:47;;;;;;;7.73;4.20;;;;;;;20.49;52.05;97677.44;5051238;28;20449;-71
2023/09/29 01:05:13;;;;;;;8.50;4.20;;;;;;;20.38;52.82;97676.22;5048472;28;20434;-71
2023/09/29 01:07:38;;;;;;;4.17;3.70;;;;;;;20.43;52.29;97672.94;5040541;28;20446;-70
2023/09/29 01:10:05;;;;;;;4.20;3.80;;;;;;;20.44;52.26;97679.06;5048150;28;20199;-70
2023/09/29 01:12:30;;;;;;;4.50;3.60;;;;;;;20.41;52.25;97675.78;5057689;28;20206;-71
2023/09/29 01:14:57;;;;;;;4.10;3.70;;;;;;;20.42;52.38;97676.63;5047624;28;20445;-71
2023/09/29 01:17:24;;;;;;;3.90;3.50;;;;;;;20.38;52.23;97676.22;5056519;28;20186;-71
2023/09/29 01:19:50;;;;;;;6.07;3.90;;;;;;;20.37;52.37;97677.22;5047638;28;20433;-70
2023/09/29 01:22:15;;;;;;;13.63;4.30;;;;;;;20.29;52.37;97680.06;5040207;28;20464;-69
2023/09/29 01:24:40;;;;;;;7.50;4.23;;;;;;;20.25;52.63;97681.53;5051922;28;20197;-70
2023/09/29 01:27:06;;;;;;;7.83;4.03;;;;;;;20.18;52.90;97678.84;5050416;28;20277;-70
2023/09/29 01:29:32;;;;;;;6.60;3.90;;;;;;;20.18;52.77;97681.50;5056302;28;20199;-69
2023/09/29 01:31:57;;;;;;;5.73;4.30;;;;;;;20.16;52.56;97683.56;5049907;28;20242;-70
2023/09/29 01:34:24;;;;;;;6.63;4.23;;;;;;;20.14;52.66;97685.59;5061546;28;20210;-68
2023/09/29 01:36:50;;;;;;;6.53;3.90;;;;;;;20.14;52.41;97682.13;5047372;28;20559;-69
2023/09/29 01:39:16;;;;;;;4.63;3.80;;;;;;;20.09;52.46;97682.72;5040352;28;20429;-69
2023/09/29 01:41:43;;;;;;;5.83;4.43;;;;;;;20.09;52.68;97672.91;5052006;28;20191;-70
2023/09/29 01:44:09;;;;;;;5.00;4.50;;;;;;;20.12;52.62;97674.31;5031743;28;20460;-70
2023/09/29 01:46:35;;;;;;;6.40;3.90;;;;;;;20.12;52.70;97674.31;5046086;28;20805;-70
2023/09/29 01:49:00;;;;;;;4.77;4.10;;;;;;;20.02;52.39;97682.72;5049056;28;20433;-68
2023/09/29 01:51:29;;;;;;;5.30;3.60;;;;;;;19.95;52.60;97666.75;5061090;28;20271;-70
2023/09/29 01:53:54;;;;;;;6.23;4.07;;;;;;;19.95;52.34;97673.88;5055791;28;20245;-70
2023/09/29 01:56:21;;;;;;;4.80;3.70;;;;;;;19.82;53.12;97668.50;5054657;28;20503;-69
2023/09/29 01:58:48;;;;;;;6.83;4.20;;;;;;;19.82;52.85;97665.84;5050801;28;20187;-69
2023/09/29 02:01:14;;;;;;;4.63;4.00;;;;;;;19.82;52.95;97660.53;5056831;28;20524;-71
2023/09/29 02:03:41;;;;;;;11.07;3.70;;;;;;;19.79;52.91;97667.88;5049932;28;20557;-70
2023/09/29 02:06:06;;;;;;;5.90;3.40;;;;;;;19.76;52.93;97670.97;5047181;28;20195;-71
2023/09/29 02:08:32;;;;;;;7.83;3.43;;;;;;;19.69;52.90;97661.31;5059850;28;20432;-70
2023/09/29 02:10:57;;;;;;;5.13;3.67;;;;;;;19.75;52.66;97668.47;5049276;28;20274;-70
2023/09/29 02:13:23;;;;;;;4.20;3.43;;;;;;;19.68;52.66;97668.44;5053825;28;20237;-70
2023/09/29 02:15:48;;;;;;;5.90;3.87;;;;;;;19.74;52.89;97670.34;5049763;28;20294;-71
2023/09/29 02:18:13;;;;;;;8.50;3.83;;;;;;;19.74;52.79;97670.34;5047721;28;20187;-69
2023/09/29 02:20:46;;;;;;;6.47;4.00;;;;;;;19.69;53.03;97662.13;5051804;28;20187;-71
2023/09/29 02:23:14;;;;;;;5.20;3.60;;;;;;;19.63;53.16;97658.44;5036115;28;20216;-71
2023/09/29 02:25:41;;;;;;;5.00;3.90;;;;;;;19.60;53.09;97658.81;5044798;28;20437;-71
2023/09/29 02:28:06;;;;;;;7.53;4.00;;;;;;;19.59;52.87;97667.00;5045606;28;20433;-70
2023/09/29 02:30:31;;;;;;;4.87;4.13;;;;;;;19.59;52.93;97669.66;5042854;28;20532;-69
2023/09/29 02:32:57;;;;;;;6.07;4.10;;;;;;;19.60;52.83;97663.31;5039854;28;20215;-71
2023/09/29 02:35:23;;;;;;;4.20;3.80;;;;;;;19.53;52.91;97665.97;5051856;28;20409;-70
2023/09/29 02:37:49;;;;;;;4.90;3.70;;;;;;;19.53;53.00;97657.97;5045470;28;20236;-70
2023/09/29 02:40:18;;;;;;;5.17;3.60;;;;;;;19.57;52.77;97658.41;5052835;28;20436;-71
2023/09/29 02:42:46;;;;;;;6.27;3.60;;;;;;;19.63;52.67;97661.09;5051792;28;20267;-71
2023/09/29 02:45:12;;;;;;;7.20;3.90;;;;;;;19.66;52.59;97657.19;5049970;28;20425;-71
2023/09/29 02:47:39;;;;;;;4.80;3.53;;;;;;;19.65;52.49;97661.72;5055238;28;20429;-71
2023/09/29 02:50:09;;;;;;;8.03;4.30;;;;;;;19.70;52.35;97658.44;5052987;28;20988;-71
2023/09/29 02:52:35;;;;;;;6.77;4.33;;;;;;;19.73;52.17;97662.53;5054240;28;20540;-72
2023/09/29 02:55:00;;;;;;;9.40;4.07;;;;;;;19.73;51.88;97663.38;5091017;28;20520;-70
2023/09/29 02:57:26;;;;;;;5.57;4.00;;;;;;;19.81;51.83;97670.34;5050779;28;20191;-71
2023/09/29 02:59:51;;;;;;;5.67;4.40;;;;;;;19.88;51.30;97671.22;5042635;28;20192;-72
2023/09/29 03:02:16;;;;;;;5.03;3.80;;;;;;;19.89;51.49;97661.41;5048493;28;20842;-72
2023/09/29 03:04:43;;;;;;;11.30;4.30;;;;;;;19.86;51.66;97654.63;5054758;28;20306;-72
2023/09/29 03:07:09;;;;;;;6.47;3.97;;;;;;;19.86;51.72;97667.09;5070629;28;20183;-72
2023/09/29 03:09:36;;;;;;;6.30;4.20;;;;;;;19.88;51.38;97665.09;5054390;28;20965;-70
2023/09/29 03:12:01;;;;;;;4.23;3.83;;;;;;;19.87;51.84;97660.78;5043929;28;20449;-71
2023/09/29 03:14:27;;;;;;;5.13;4.10;;;;;;;19.85;51.77;97668.91;5040037;28;21017;-72
2023/09/29 03:16:57;;;;;;;5.87;3.50;;;;;;;19.82;52.13;97674.66;5043530;28;20907;-72
2023/09/29 03:19:22;;;;;;;4.33;3.70;;;;;;;19.79;52.32;97659.09;5041684;28;20870;-71
2023/09/29 03:21:48;;;;;;;8.17;4.37;;;;;;;19.78;51.80;97665.44;5043735;28;20427;-72
2023/09/29 03:24:14;;;;;;;7.10;4.30;;;;;;;19.72;51.59;97664.38;5051208;28;20214;-70
2023/09/29 03:26:39;;;;;;;7.67;4.80;;;;;;;19.67;52.01;97658.84;5040217;28;20916;-70
2023/09/29 03:29:05;;;;;;;6.20;4.33;;;;;;;19.69;51.87;97658.66;5076114;28;20191;-69
2023/09/29 03:31:30;;;;;;;10.33;4.60;;;;;;;19.73;51.90;97657.22;5042483;28;20187;-70
2023/09/29 03:33:56;;;;;;;4.93;3.57;;;;;;;19.77;51.81;97656.66;5043155;28;20211;-71
2023/09/29 03:36:21;;;;;;;5.30;4.23;;;;;;;19.73;51.86;97663.38;5052013;28;20215;-71
2023/09/29 03:38:47;;;;;;;5.43;4.23;;;;;;;19.73;51.68;97657.22;5038249;28;20187;-71
2023/09/29 03:41:13;;;;;;;5.50;4.23;;;;;;;19.69;52.02;97656.00;5045069;28;20191;-71
2023/09/29 03:43:39;;;;;;;8.27;4.80;;;;;;;19.70;52.17;97658.44;5046756;28;20203;-71
2023/09/29 03:46:04;;;;;;;6.67;4.10;;;;;;;19.64;52.29;97651.28;5048275;28;20449;-73
2023/09/29 03:48:30;;;;;;;5.53;4.60;;;;;;;19.60;52.25;97647.38;5045822;28;20226;-71
2023/09/29 03:50:57;;;;;;;4.70;4.20;;;;;;;19.59;52.32;97651.06;5040522;28;20648;-71
2023/09/29 03:53:23;;;;;;;7.17;4.63;;;;;;;19.53;52.55;97652.66;5027511;28;20269;-72
2023/09/29 03:55:48;;;;;;;6.57;4.80;;;;;;;19.45;53.09;97653.66;5038452;28;21063;-71
2023/09/29 03:58:15;;;;;;;7.47;4.63;;;;;;;19.44;53.12;97649.34;5037732;28;20282;-72
2023/09/29 04:00:41;;;;;;;8.97;4.40;;;;;;;19.42;53.04;97647.94;5040654;28;20404;-71
2023/09/29 04:03:07;;;;;;;7.70;4.30;;;;;;;19.44;52.74;97659.19;5044223;28;20457;-71
2023/09/29 04:05:32;;;;;;;8.43;4.13;;;;;;;19.31;52.95;97665.25;5041378;28;20425;-71
2023/09/29 04:07:57;;;;;;;6.33;4.40;;;;;;;19.24;53.29;97659.09;5039018;28;20435;-72
2023/09/29 04:10:23;;;;;;;6.40;4.00;;;;;;;19.26;53.17;97659.72;5054581;28;20648;-71
2023/09/29 04:12:49;;;;;;;9.17;4.60;;;;;;;19.25;53.29;97666.84;5051891;28;20214;-71
2023/09/29 04:15:15;;;;;;;9.30;5.03;;;;;;;19.27;53.43;97661.34;5042591;28;20191;-71
2023/09/29 04:17:41;;;;;;;5.63;4.20;;;;;;;19.24;53.62;97659.09;5032741;28;20940;-71
2023/09/29 04:20:07;;;;;;;7.63;4.70;;;;;;;19.18;54.01;97664.16;5035775;28;20449;-72
2023/09/29 04:22:33;;;;;;;11.10;4.43;;;;;;;19.14;54.05;97668.25;5047346;28;20210;-71
2023/09/29 04:24:58;;;;;;;5.47;4.37;;;;;;;19.11;54.13;97686.38;5041712;28;21021;-71
2023/09/29 04:27:24;;;;;;;6.60;4.63;;;;;;;19.10;54.18;97674.94;5043358;28;20444;-71
2023/09/29 04:29:50;;;;;;;5.70;4.77;;;;;;;19.12;53.98;97672.94;5049602;28;20195;-71
2023/09/29 04:32:17;;;;;;;5.33;4.33;;;;;;;19.14;54.25;97686.00;5048963;28;20706;-71
2023/09/29 04:34:43;;;;;;;4.77;4.30;;;;;;;19.09;54.39;97689.25;5091071;28;20506;-72
2023/09/29 04:37:08;;;;;;;10.33;4.53;;;;;;;19.11;54.47;97694.34;5064535;28;20429;-72
2023/09/29 04:39:34;;;;;;;10.00;4.60;;;;;;;19.15;54.43;97692.97;5096722;28;20226;-70
2023/09/29 04:41:59;;;;;;;8.07;4.70;;;;;;;19.19;54.45;97695.03;5046886;28;20205;-70
2023/09/29 04:44:25;;;;;;;7.40;4.70;;;;;;;19.24;54.25;97686.47;5047866;28;20534;-70
2023/09/29 04:46:50;;;;;;;6.77;4.60;;;;;;;19.23;55.13;97686.66;5048242;28;20214;-71
2023/09/29 04:49:16;;;;;;;6.30;4.90;;;;;;;19.25;54.62;97693.41;5047696;28;20251;-71
2023/09/29 04:51:43;;;;;;;10.30;5.63;;;;;;;19.22;54.52;97703.63;5048383;28;20191;-73
2023/09/29 04:54:10;;;;;;;6.40;4.60;;;;;;;19.22;54.62;97696.47;5045209;28;20218;-72
2023/09/29 04:56:35;;;;;;;7.13;4.60;;;;;;;19.18;54.74;97692.56;5048429;28;20436;-71
2023/09/29 04:59:01;;;;;;;6.37;4.30;;;;;;;19.18;54.93;97690.72;5053872;28;21176;-69
2023/09/29 05:01:27;;;;;;;8.93;4.27;;;;;;;19.23;54.37;97684.00;5049790;28;20850;-72
2023/09/29 05:03:52;;;;;;;6.37;4.40;;;;;;;19.24;54.41;97675.84;5052777;28;20206;-71
2023/09/29 05:06:18;;;;;;;8.10;6.03;;;;;;;19.24;54.75;97677.69;5046836;28;20500;-72
2023/09/29 05:08:44;;;;;;;7.33;5.93;;;;;;;19.30;54.84;97683.03;5053484;28;20213;-71
2023/09/29 05:11:22;;;;;;;6.50;5.20;;;;;;;19.23;55.05;97682.16;5048204;28;20225;-70
2023/09/29 05:13:51;;;;;;;8.37;5.40;;;;;;;19.25;54.87;97688.09;5047790;28;20817;-72
2023/09/29 05:16:17;;;;;;;8.10;6.00;;;;;;;19.27;55.08;97690.59;5052752;28;20429;-71
2023/09/29 05:18:43;;;;;;;6.93;5.37;;;;;;;19.23;54.82;97684.00;5048303;28;20436;-72
2023/09/29 05:21:09;;;;;;;8.33;6.40;;;;;;;19.24;55.22;97686.47;5046796;28;20704;-71
2023/09/29 05:23:35;;;;;;;8.40;5.90;;;;;;;19.25;54.98;97684.66;5045714;28;20208;-71
2023/09/29 05:26:04;;;;;;;9.67;5.70;;;;;;;19.28;55.07;97689.56;5048919;28;20429;-71
2023/09/29 05:28:30;;;;;;;8.73;5.50;;;;;;;19.31;55.29;97697.13;5047250;28;20479;-72
2023/09/29 05:30:55;;;;;;;12.00;5.67;;;;;;;19.36;55.09;97705.34;5047571;28;20441;-71
2023/09/29 05:33:21;;;;;;;8.80;6.67;;;;;;;19.41;55.20;97707.41;5054652;28;20757;-72
2023/09/29 05:35:46;;;;;;;11.47;8.23;;;;;;;19.42;55.50;97706.38;5053528;28;20273;-72
2023/09/29 05:38:12;;;;;;;13.20;10.40;;;;;;;19.39;55.60;97704.13;5052984;28;20195;-72
2023/09/29 05:40:38;;;;;;;13.57;9.20;;;;;;;19.32;55.87;97709.41;5049597;28;20183;-71
2023/09/29 05:43:04;;;;;;;15.20;8.07;;;;;;;19.36;55.84;97704.50;5050766;28;20752;-71
2023/09/29 05:45:30;;;;;;;10.70;6.53;;;;;;;19.44;55.66;97707.03;5046075;28;20195;-71
2023/09/29 05:47:56;;;;;;;11.87;7.73;;;;;;;19.58;55.31;97706.06;5041158;28;20459;-71
2023/09/29 05:50:21;;;;;;;14.77;10.33;;;;;;;19.82;55.10;97703.91;5046388;28;20599;-72
2023/09/29 05:52:47;;;;;;;16.53;8.57;;;;;;;20.05;54.68;97708.91;5045274;28;20252;-71
2023/09/29 05:55:13;;;;;;;26.97;8.00;;;;;;;20.26;54.23;97704.44;5051079;28;20234;-71
2023/09/29 05:57:38;;;;;;;18.93;8.37;;;;;;;20.47;53.88;97711.44;5047445;28;20457;-71
2023/09/29 06:00:06;;;;;;;26.20;7.90;;;;;;;20.60;53.75;97709.81;5055104;28;20194;-72
2023/09/29 06:02:31;;;;;;;12.00;6.37;;;;;;;20.76;52.73;97721.91;5053805;28;20206;-71
2023/09/29 06:04:56;;;;;;;12.80;6.93;;;;;;;20.87;52.33;97715.97;5059861;28;20425;-71
2023/09/29 06:07:23;;;;;;;9.50;5.63;;;;;;;20.94;51.62;97716.78;5046798;28;20203;-72
2023/09/29 06:09:48;;;;;;;9.10;6.17;;;;;;;21.00;51.62;97710.63;5047070;28;20195;-71
2023/09/29 06:12:13;;;;;;;7.37;5.43;;;;;;;20.98;51.69;97715.34;5043905;28;20996;-72
2023/09/29 06:14:39;;;;;;;8.37;5.30;;;;;;;21.00;51.70;97723.94;5052556;28;20313;-72
2023/09/29 06:17:04;;;;;;;7.70;5.30;;;;;;;21.03;51.27;97720.03;5051624;28;20195;-72
2023/09/29 06:19:30;;;;;;;11.10;6.63;;;;;;;21.00;52.05;97720.44;5051385;28;22344;-72
2023/09/29 06:21:55;;;;;;;17.37;7.90;;;;;;;20.96;52.34;97725.38;5051861;28;20214;-70
2023/09/29 06:24:21;;;;;;;12.00;5.60;;;;;;;20.91;51.78;97722.53;5048940;28;20293;-72
2023/09/29 06:26:46;;;;;;;7.63;5.40;;;;;;;20.95;51.66;97726.41;5045660;28;20627;-71
2023/09/29 06:29:12;;;;;;;11.40;5.20;;;;;;;21.00;51.88;97731.09;5052644;28;20333;-72
2023/09/29 06:31:38;;;;;;;9.10;5.83;;;;;;;21.07;52.00;97725.78;5051605;28;20218;-71
2023/09/29 06:34:04;;;;;;;17.30;7.40;;;;;;;21.14;52.20;97735.41;5052313;28;20215;-72
2023/09/29 06:36:29;;;;;;;19.30;10.03;;;;;;;21.25;52.71;97735.78;5056740;28;20933;-71
2023/09/29 06:38:56;;;;;;;16.47;10.60;;;;;;;21.31;52.54;97735.78;5043136;28;20201;-72
2023/09/29 06:41:22;;;;;;;17.13;9.70;;;;;;;21.35;52.95;97738.03;5047188;28;20248;-72
2023/09/29 06:43:47;;;;;;;14.40;10.10;;;;;;;21.35;52.77;97746.03;5050637;28;20452;-72
2023/09/29 06:46:12;;;;;;;14.83;9.60;;;;;;;21.40;53.11;97740.91;5046441;28;20194;-71
2023/09/29 06:48:38;;;;;;;18.83;10.13;;;;;;;21.41;53.75;97743.34;5045497;28;20256;-71
2023/09/29 06:51:03;;;;;;;20.73;9.37;;;;;;;21.45;53.61;97738.41;5050467;28;20250;-72
2023/09/29 06:53:31;;;;;;;17.77;8.77;;;;;;;21.48;53.41;97738.81;5047758;28;20212;-72
2023/09/29 06:55:58;;;;;;;13.00;8.73;;;;;;;21.50;53.10;97741.28;5049305;28;20557;-71
2023/09/29 06:58:23;;;;;;;13.03;6.77;;;;;;;21.53;52.90;97746.19;5049061;28;20440;-72
2023/09/29 07:00:51;;;;;;;20.60;6.87;;;;;;;21.57;52.92;97747.41;5045999;28;20445;-72
2023/09/29 07:03:17;;;;;;;9.97;8.00;;;;;;;21.62;52.90;97747.63;5045209;28;20222;-72
2023/09/29 07:05:43;;;;;;;12.30;6.97;;;;;;;21.66;52.91;97744.56;5046135;28;20774;-71
2023/09/29 07:08:08;;;;;;;9.90;6.93;;;;;;;21.68;52.94;97743.31;5046264;28;20526;-72
2023/09/29 07:10:33;;;;;;;10.80;6.23;;;;;;;21.72;52.57;97749.03;5042262;28;20593;-71
2023/09/29 07:13:00;;;;;;;14.10;6.70;;;;;;;21.77;52.48;97742.03;5037375;28;20258;-71
2023/09/29 07:15:26;;;;;;;9.97;6.27;;;;;;;21.81;52.80;97739.75;5044288;28;20187;-71
2023/09/29 07:17:51;;;;;;;7.47;6.10;;;;;;;21.89;52.46;97739.53;5042203;28;20487;-72
2023/09/29 07:20:17;;;;;;;10.10;5.70;;;;;;;21.96;52.26;97739.50;5037442;28;20199;-71
2023/09/29 07:22:43;;;;;;;13.93;5.80;;;;;;;22.01;51.85;97741.53;5034830;28;20214;-72
2023/09/29 07:25:09;;;;;;;13.30;5.57;;;;;;;22.10;51.65;97742.91;5046137;28;20518;-71
2023/09/29 07:27:35;;;;;;;5.90;5.30;;;;;;;22.16;51.24;97738.56;5078845;28;20246;-72
2023/09/29 07:30:02;;;;;;;13.23;5.50;;;;;;;22.22;51.06;97737.72;5038779;28;20226;-72
2023/09/29 07:32:27;;;;;;;7.37;5.50;;;;;;;22.29;50.80;97751.03;5044159;28;20474;-72
2023/09/29 07:34:53;;;;;;;8.77;5.07;;;;;;;22.35;50.59;97752.81;5042805;28;20493;-71
2023/09/29 07:37:18;;;;;;;10.63;5.40;;;;;;;22.42;50.55;97753.66;5039180;28;20660;-71
2023/09/29 07:39:43;;;;;;;4.83;4.33;;;;;;;22.47;50.31;97745.00;5036507;28;20729;-72
2023/09/29 07:42:09;;;;;;;10.07;4.53;;;;;;;22.50;49.49;97749.88;5050355;28;20235;-71
2023/09/29 07:44:35;;;;;;;11.60;4.40;;;;;;;22.52;49.18;97739.78;5044258;28;20194;-70
2023/09/29 07:47:01;;;;;;;8.07;4.70;;;;;;;22.54;48.97;97746.59;5043632;28;20225;-72
2023/09/29 07:49:26;;;;;;;10.63;5.00;;;;;;;22.62;48.50;97747.34;5042387;28;20188;-71
2023/09/29 07:51:52;;;;;;;6.10;3.97;;;;;;;22.75;48.42;97747.25;5046592;28;20202;-71
2023/09/29 07:54:19;;;;;;;13.87;4.50;;;;;;;22.84;48.22;97751.25;5047096;28;20212;-71
2023/09/29 07:56:49;;;;;;;8.43;4.50;;;;;;;22.98;48.15;97752.00;5049173;28;20187;-72
2023/09/29 07:59:16;;;;;;;6.37;4.70;;;;;;;23.11;48.10;97761.72;5047001;28;20512;-73
2023/09/29 08:01:42;;;;;;;7.23;4.50;;;;;;;23.19;47.71;97754.47;5050178;28;20464;-69
2023/09/29 08:04:09;;;;;;;8.30;4.83;;;;;;;23.27;47.46;97752.34;5047660;28;20793;-71
2023/09/29 08:06:35;;;;;;;9.10;4.17;;;;;;;23.34;47.21;97748.81;5050538;28;20517;-68
2023/09/29 08:09:01;;;;;;;13.80;4.50;;;;;;;23.58;46.94;97749.75;5049338;28;20772;-72
2023/09/29 08:11:26;;;;;;;10.17;4.53;;;;;;;23.84;46.65;97756.69;5043052;28;20423;-71
2023/09/29 08:13:53;;;;;;;8.57;4.37;;;;;;;23.98;46.54;97759.22;5058471;28;20797;-72
2023/09/29 08:16:20;;;;;;;6.43;3.80;;;;;;;24.04;46.03;97759.13;5050425;28;20191;-71
2023/09/29 08:18:46;;;;;;;5.97;4.23;;;;;;;24.05;46.07;97758.09;5040435;28;20516;-71
2023/09/29 08:21:11;;;;;;;9.43;4.20;;;;;;;24.31;45.89;97756.09;5037177;28;20426;-72
2023/09/29 08:23:39;;;;;;;5.97;4.53;;;;;;;24.56;44.98;97760.47;5040353;28;20207;-72
2023/09/29 08:26:04;;;;;;;10.97;4.80;;;;;;;24.86;44.51;97759.63;5045923;28;20210;-71
2023/09/29 08:28:30;;;;;;;4.67;4.17;;;;;;;24.97;44.14;97753.44;5039683;28;20435;-71
2023/09/29 08:30:55;;;;;;;5.17;4.30;;;;;;;25.07;43.89;97754.75;5051305;28;20198;-71
2023/09/29 08:33:21;;;;;;;9.70;4.10;;;;;;;25.11;44.11;97756.72;5041671;28;20206;-70
2023/09/29 08:35:47;;;;;;;7.47;4.30;;;;;;;25.04;43.87;97755.22;5044736;28;20238;-69
2023/09/29 08:38:12;;;;;;;5.73;3.70;;;;;;;25.04;43.91;97747.97;5045729;28;20984;-70
2023/09/29 08:40:39;;;;;;;5.57;4.13;;;;;;;25.03;44.20;97748.22;5043473;28;20278;-70
2023/09/29 08:43:06;;;;;;;6.97;4.40;;;;;;;25.16;44.44;97747.97;5041462;28;20211;-70
2023/09/29 08:45:32;;;;;;;7.57;4.10;;;;;;;25.54;44.18;97744.00;5038649;28;21124;-69
2023/09/29 08:47:59;;;;;;;9.30;5.00;;;;;;;25.92;43.96;97733.75;5050393;28;20434;-68
2023/09/29 08:50:24;;;;;;;7.67;4.13;;;;;;;26.33;43.13;97733.72;5036411;28;20187;-69
2023/09/29 08:52:51;;;;;;;9.00;3.70;;;;;;;26.75;42.28;97741.41;5039150;28;20793;-68
2023/09/29 08:55:17;;;;;;;5.93;3.63;;;;;;;27.17;41.52;97747.44;5036256;28;20389;-69
2023/09/29 08:57:43;;;;;;;5.50;3.17;;;;;;;27.56;39.99;97736.69;5045080;28;20438;-69
2023/09/29 09:00:12;;;;;;;9.57;3.80;;;;;;;27.83;38.61;97738.66;5043120;28;20194;-69
2023/09/29 09:02:41;;;;;;;6.90;4.00;;;;;;;28.27;38.56;97738.59;5042273;28;20481;-71
2023/09/29 09:05:07;;;;;;;6.10;3.40;;;;;;;28.65;37.12;97727.88;5039816;28;20845;-69
2023/09/29 09:07:35;;;;;;;6.03;3.20;;;;;;;28.95;35.92;97732.72;5042075;28;20541;-69
2023/09/29 09:10:00;;;;;;;5.50;3.43;;;;;;;29.12;34.82;97726.34;5040070;28;20426;-69
2023/09/29 09:12:35;;;;;;;3.83;3.07;;;;;;;29.43;33.65;97727.34;5046277;28;20543;-69
2023/09/29 09:15:03;;;;;;;6.50;4.07;;;;;;;29.83;33.42;97718.88;5041016;28;21433;-70
2023/09/29 09:17:29;;;;;;;3.20;2.80;;;;;;;30.13;33.09;97722.75;5040243;28;20810;-70
2023/09/29 09:19:55;;;;;;;6.23;3.07;;;;;;;30.33;32.38;97724.69;5041507;28;20422;-69
2023/09/29 09:22:26;;;;;;;4.90;3.10;;;;;;;30.71;32.06;97725.28;5033011;28;20449;-68
2023/09/29 09:24:58;;;;;;;4.30;2.70;;;;;;;30.54;31.43;97719.31;5044552;28;20663;-71
2023/09/29 09:27:24;;;;;;;2.97;2.67;;;;;;;30.26;31.42;97724.13;5036372;28;20794;-71
2023/09/29 09:29:50;;;;;;;4.43;3.17;;;;;;;30.26;31.87;97721.41;5040338;28;20441;-71
2023/09/29 09:32:25;;;;;;;2.70;2.50;;;;;;;30.14;32.18;97725.19;5043537;28;20215;-71
2023/09/29 09:34:50;;;;;;;3.03;2.73;;;;;;;30.13;32.24;97712.75;5064283;28;20468;-72
2023/09/29 09:37:29;;;;;;;3.40;2.77;;;;;;;29.73;32.37;97722.38;5049363;28;20429;-71
2023/09/29 09:39:55;;;;;;;6.70;2.90;;;;;;;29.87;32.28;97725.38;5050979;28;20200;-71
2023/09/29 09:42:25;;;;;;;4.20;2.53;;;;;;;30.03;32.42;97728.94;5048444;28;20565;-71
2023/09/29 09:44:53;;;;;;;5.00;2.97;;;;;;;30.00;31.97;97726.78;5050231;28;20414;-73
2023/09/29 09:47:19;;;;;;;3.70;2.63;;;;;;;30.03;32.24;97729.78;5039466;28;20930;-72
2023/09/29 09:49:47;;;;;;;5.77;2.77;;;;;;;29.98;32.08;97723.56;5036953;28;20477;-74
2023/09/29 09:52:24;;;;;;;3.30;3.00;;;;;;;29.88;32.04;97732.41;5042496;28;20290;-74
2023/09/29 09:54:52;;;;;;;5.43;2.57;;;;;;;29.83;32.60;97724.25;5035004;28;20468;-73
2023/09/29 09:57:25;;;;;;;5.20;2.53;;;;;;;29.79;32.15;97734.78;5044152;28;20441;-72
2023/09/29 09:59:54;;;;;;;3.20;2.90;;;;;;;29.55;32.08;97729.03;5035820;28;20445;-72
2023/09/29 10:02:20;;;;;;;3.37;3.07;;;;;;;29.48;32.29;97733.84;5040926;28;20726;-71
2023/09/29 10:04:46;;;;;;;4.43;3.23;;;;;;;29.63;32.46;97735.81;5037839;28;20476;-72
2023/09/29 10:07:14;;;;;;;3.40;2.67;;;;;;;29.59;33.20;97732.81;5036549;28;20198;-73
2023/09/29 10:09:43;;;;;;;7.93;3.47;;;;;;;29.48;33.04;97734.69;5045140;28;20441;-72
2023/09/29 10:12:09;;;;;;;3.43;3.17;;;;;;;29.51;33.65;97730.63;5037188;28;20480;-71
2023/09/29 10:14:44;;;;;;;6.50;4.20;;;;;;;29.64;33.34;97734.72;5036806;28;20463;-73
2023/09/29 10:17:12;;;;;;;8.90;2.80;;;;;;;29.58;32.91;97729.31;5046617;28;20460;-71
2023/09/29 10:19:38;;;;;;;4.53;3.27;;;;;;;29.68;33.04;97730.44;5043716;28;20927;-71
2023/09/29 10:22:04;;;;;;;5.40;2.90;;;;;;;29.74;33.13;97726.66;5049280;28;20461;-72
2023/09/29 10:24:30;;;;;;;3.70;3.30;;;;;;;29.98;33.34;97727.06;5042851;28;20724;-73
2023/09/29 10:27:03;;;;;;;8.97;3.30;;;;;;;30.11;33.11;97731.16;5039803;28;20433;-71
2023/09/29 10:29:30;;;;;;;6.23;2.97;;;;;;;30.45;32.55;97725.25;5041124;28;20683;-72
2023/09/29 10:32:10;;;;;;;2.87;2.60;;;;;;;30.97;32.09;97729.84;5042777;28;20633;-71
2023/09/29 10:34:39;;;;;;;3.50;2.70;;;;;;;31.42;31.28;97722.72;5030669;28;20836;-71
2023/09/29 10:37:04;;;;;;;5.47;3.00;;;;;;;31.83;30.49;97719.84;5046509;28;20796;-73
2023/09/29 10:39:30;;;;;;;6.43;3.20;;;;;;;32.10;29.38;97720.53;5064325;28;20437;-70
2023/09/29 10:42:04;;;;;;;3.23;2.93;;;;;;;32.49;29.33;97717.03;5049745;28;20259;-72
2023/09/29 10:44:29;;;;;;;9.80;3.03;;;;;;;32.83;28.48;97721.66;5050394;28;20610;-71
2023/09/29 10:46:55;;;;;;;4.80;2.60;;;;;;;33.05;28.67;97720.34;5036116;28;20517;-71
2023/09/29 10:49:30;;;;;;;3.93;2.50;;;;;;;33.28;27.90;97717.94;5053879;28;20197;-71
2023/09/29 10:51:56;;;;;;;3.40;2.90;;;;;;;33.22;28.11;97714.47;5047132;28;20194;-74
2023/09/29 10:54:22;;;;;;;2.90;2.70;;;;;;;33.35;27.92;97702.94;5047946;28;20460;-72
2023/09/29 10:56:49;;;;;;;5.43;2.50;;;;;;;33.44;28.14;97716.69;5058709;28;20514;-72
2023/09/29 10:59:14;;;;;;;4.10;2.90;;;;;;;33.44;27.83;97708.56;5060046;28;20241;-72
2023/09/29 11:01:40;;;;;;;3.73;2.90;;;;;;;33.63;28.05;97707.78;5057712;28;20921;-72
2023/09/29 11:04:09;;;;;;;3.50;2.80;;;;;;;33.62;28.68;97712.41;5053650;28;20238;-71
2023/09/29 11:06:45;;;;;;;3.90;2.20;;;;;;;33.59;28.35;97706.75;5049654;28;20213;-72
2023/09/29 11:09:16;;;;;;;6.10;3.00;;;;;;;33.75;28.25;97710.91;5052425;28;20448;-72
2023/09/29 11:11:41;;;;;;;6.53;2.90;;;;;;;33.52;28.87;97709.81;5061453;28;20574;-72
2023/09/29 11:14:07;;;;;;;4.00;3.10;;;;;;;33.37;29.17;97703.47;5057531;28;20461;-72
2023/09/29 11:16:33;;;;;;;3.30;3.00;;;;;;;33.80;28.99;97699.16;5044336;28;20185;-72
2023/09/29 11:19:12;;;;;;;3.60;3.27;;;;;;;33.97;28.59;97685.06;5057066;28;20630;-70
2023/09/29 11:21:39;;;;;;;4.23;3.20;;;;;;;34.25;28.12;97691.44;5056993;28;20638;-73
2023/09/29 11:24:07;;;;;;;7.07;2.70;;;;;;;34.26;27.95;97687.63;5049946;28;20958;-71
2023/09/29 11:26:33;;;;;;;4.83;2.90;;;;;;;34.26;28.37;97698.50;5050797;28;20467;-70
2023/09/29 11:28:58;;;;;;;5.53;3.70;;;;;;;34.40;28.18;97692.31;5050475;28;20513;-72
2023/09/29 11:31:24;;;;;;;3.93;3.07;;;;;;;34.13;28.57;97678.31;5051097;28;20187;-69